Time;durP1;ratioP1;P1;durP2;ratioP2;P2;SDS_P1;SDS_P2;PMS_P1;PMS_P2;Temp;Humidity;BMP_temperature;BMP_pressure;BME280_temperature;BME280_humidity;BME280_pressure;Samples;Min_cycle;Max_cycle;Signal;HPM_P1;HPM_P2
2023/11/15 00:00:41;;;;;;;5.82;2.40;;;9.90;99.90;;;;;;5051273;28;20693;-42
2023/11/15 00:03:07;;;;;;;10.05;2.50;;;9.90;99.90;;;;;;5070129;28;20190;-43
2023/11/15 00:05:33;;;;;;;6.93;2.13;;;9.90;99.90;;;;;;5053181;28;20210;-43
2023/11/15 00:07:59;;;;;;;10.70;2.50;;;9.80;99.90;;;;;;5057058;28;20271;-43
2023/11/15 00:10:26;;;;;;;10.70;2.50;;;9.80;99.90;;;;;;5055854;28;20631;-41
2023/11/15 00:12:52;;;;;;;9.10;2.50;;;9.80;99.90;;;;;;5054122;28;20249;-45
2023/11/15 00:15:18;;;;;;;6.32;2.10;;;9.80;99.90;;;;;;5051478;28;20190;-43
2023/11/15 00:17:44;;;;;;;13.43;2.65;;;9.80;99.90;;;;;;5056018;28;20218;-43
2023/11/15 00:20:13;;;;;;;7.30;2.20;;;9.80;99.90;;;;;;5050839;28;20191;-44
2023/11/15 00:22:40;;;;;;;6.53;2.20;;;9.80;99.90;;;;;;5052087;28;20191;-44
2023/11/15 00:25:07;;;;;;;8.25;1.80;;;9.90;99.90;;;;;;5052597;28;20930;-41
2023/11/15 00:27:33;;;;;;;8.40;1.90;;;9.80;99.90;;;;;;5049283;28;20682;-39
2023/11/15 00:29:59;;;;;;;6.57;2.10;;;9.90;99.90;;;;;;5053283;28;20214;-48
2023/11/15 00:32:25;;;;;;;9.18;2.42;;;9.90;99.90;;;;;;5053413;28;20190;-44
2023/11/15 00:34:51;;;;;;;12.73;2.85;;;9.80;99.90;;;;;;5049945;28;20195;-43
2023/11/15 00:37:17;;;;;;;6.22;2.45;;;9.80;99.90;;;;;;5053022;28;20194;-47
2023/11/15 00:39:43;;;;;;;9.65;2.75;;;9.70;99.90;;;;;;5066385;28;20187;-45
2023/11/15 00:42:10;;;;;;;12.32;2.80;;;9.70;99.90;;;;;;5053334;28;20198;-42
2023/11/15 00:44:36;;;;;;;4.15;1.95;;;9.70;99.90;;;;;;5051280;28;20729;-43
2023/11/15 00:47:06;;;;;;;15.15;2.75;;;9.70;99.90;;;;;;5048712;28;20233;-42
2023/11/15 00:49:37;;;;;;;7.65;2.60;;;9.70;99.90;;;;;;5049398;28;20217;-44
2023/11/15 00:52:04;;;;;;;7.82;2.40;;;9.70;99.90;;;;;;5054557;28;20210;-46
2023/11/15 00:54:30;;;;;;;5.70;2.28;;;9.70;99.90;;;;;;5051794;28;20203;-41
2023/11/15 00:56:55;;;;;;;8.07;2.10;;;9.70;99.90;;;;;;5052347;28;20191;-47
2023/11/15 00:59:26;;;;;;;10.65;2.30;;;9.80;99.90;;;;;;5052299;28;20194;-42
2023/11/15 01:01:58;;;;;;;6.18;2.20;;;9.70;99.90;;;;;;5048761;28;20210;-42
2023/11/15 01:04:25;;;;;;;5.75;2.50;;;9.80;99.90;;;;;;5068760;28;20187;-44
2023/11/15 01:06:51;;;;;;;7.57;2.00;;;9.70;99.90;;;;;;5049453;28;20679;-46
2023/11/15 01:09:18;;;;;;;7.20;2.10;;;9.80;99.90;;;;;;5049298;28;20543;-39
2023/11/15 01:11:44;;;;;;;6.93;2.05;;;9.80;99.90;;;;;;5036759;28;20195;-45
2023/11/15 01:14:11;;;;;;;8.38;2.40;;;9.80;99.90;;;;;;5050763;28;20233;-47
2023/11/15 01:16:37;;;;;;;4.18;2.05;;;9.80;99.90;;;;;;5052384;28;20194;-42
2023/11/15 01:19:03;;;;;;;11.70;2.40;;;9.80;99.90;;;;;;5049968;28;20277;-41
2023/11/15 01:21:29;;;;;;;8.13;2.00;;;9.80;99.90;;;;;;5051787;28;20191;-46
2023/11/15 01:23:55;;;;;;;7.80;2.13;;;9.80;99.90;;;;;;5049669;28;20268;-46
2023/11/15 01:26:21;;;;;;;7.07;2.20;;;9.80;99.90;;;;;;5069034;28;20293;-42
2023/11/15 01:28:47;;;;;;;7.07;2.20;;;9.80;99.90;;;;;;5047470;28;20194;-42
2023/11/15 01:31:13;;;;;;;13.07;2.30;;;9.80;99.90;;;;;;5067075;28;20324;-46
2023/11/15 01:33:42;;;;;;;12.23;2.30;;;9.80;99.90;;;;;;5050304;28;20190;-44
2023/11/15 01:36:09;;;;;;;4.80;2.20;;;9.80;99.90;;;;;;5052551;28;20665;-42
2023/11/15 01:38:36;;;;;;;11.98;2.40;;;9.80;99.90;;;;;;5049431;28;20281;-48
2023/11/15 01:41:02;;;;;;;7.95;2.60;;;9.80;99.90;;;;;;5050201;28;20213;-39
2023/11/15 01:43:28;;;;;;;10.18;2.28;;;9.80;99.90;;;;;;5067336;28;20290;-41
2023/11/15 01:45:55;;;;;;;8.43;2.40;;;9.80;99.90;;;;;;5051343;28;20265;-45
2023/11/15 01:48:21;;;;;;;9.35;2.03;;;9.80;99.90;;;;;;5053787;28;20222;-44
2023/11/15 01:50:47;;;;;;;9.38;2.72;;;9.80;99.90;;;;;;5065356;28;20698;-42
2023/11/15 01:53:15;;;;;;;6.80;2.00;;;9.80;99.90;;;;;;5049018;28;20183;-46
2023/11/15 01:55:43;;;;;;;4.47;2.20;;;9.80;99.90;;;;;;5050757;28;20179;-40
2023/11/15 01:58:09;;;;;;;5.63;2.03;;;9.80;99.90;;;;;;5063407;28;20198;-46
2023/11/15 02:00:35;;;;;;;7.40;2.10;;;9.80;99.90;;;;;;5048784;28;20557;-45
2023/11/15 02:03:01;;;;;;;5.55;1.80;;;9.80;99.90;;;;;;5049543;28;20191;-42
2023/11/15 02:05:27;;;;;;;8.23;2.08;;;9.80;99.90;;;;;;5030052;28;20270;-45
2023/11/15 02:07:54;;;;;;;6.40;2.10;;;9.80;99.90;;;;;;5049291;28;20215;-45
2023/11/15 02:10:20;;;;;;;7.20;1.83;;;9.90;99.90;;;;;;5048141;28;20218;-43
2023/11/15 02:12:46;;;;;;;7.82;2.05;;;9.80;99.90;;;;;;5047257;28;20274;-48
2023/11/15 02:15:15;;;;;;;6.72;2.00;;;9.90;99.90;;;;;;5051371;28;20198;-42
2023/11/15 02:17:50;;;;;;;11.82;2.10;;;9.90;99.90;;;;;;5052568;28;20583;-47
2023/11/15 02:20:16;;;;;;;9.93;2.10;;;9.90;99.90;;;;;;5048355;28;20186;-40
2023/11/15 02:22:51;;;;;;;7.85;1.90;;;9.90;99.90;;;;;;5050745;28;20265;-43
2023/11/15 02:25:19;;;;;;;4.18;1.80;;;9.90;99.90;;;;;;5052896;28;20260;-43
2023/11/15 02:27:45;;;;;;;12.23;2.10;;;9.80;99.90;;;;;;5048622;28;20216;-49
2023/11/15 02:30:11;;;;;;;7.38;2.10;;;9.90;99.90;;;;;;5050357;28;20195;-42
2023/11/15 02:32:41;;;;;;;8.82;2.53;;;9.90;99.90;;;;;;5052690;28;20183;-40
2023/11/15 02:35:08;;;;;;;6.22;1.77;;;9.90;99.90;;;;;;5049199;28;20183;-47
2023/11/15 02:37:35;;;;;;;5.40;2.28;;;9.90;99.90;;;;;;5050076;28;20194;-44
2023/11/15 02:40:04;;;;;;;9.82;2.60;;;9.90;99.90;;;;;;5051050;28;20540;-47
2023/11/15 02:42:33;;;;;;;6.70;2.45;;;9.90;99.90;;;;;;5046644;28;20194;-48
2023/11/15 02:44:59;;;;;;;6.50;2.38;;;10.00;99.90;;;;;;5051908;28;20637;-46
2023/11/15 02:47:25;;;;;;;7.55;2.45;;;9.90;99.90;;;;;;5052707;28;20756;-42
2023/11/15 02:49:52;;;;;;;6.60;2.63;;;9.90;99.90;;;;;;5052988;28;20266;-41
2023/11/15 02:52:18;;;;;;;5.72;2.58;;;9.90;99.90;;;;;;5050317;28;20236;-45
2023/11/15 02:54:44;;;;;;;11.63;2.80;;;10.00;99.90;;;;;;5048107;28;20248;-42
2023/11/15 02:57:13;;;;;;;12.65;2.60;;;10.00;99.90;;;;;;5050223;28;20571;-45
2023/11/15 02:59:39;;;;;;;5.60;2.60;;;9.90;99.90;;;;;;5044741;28;20198;-43
2023/11/15 03:02:05;;;;;;;8.73;2.60;;;9.90;99.90;;;;;;5065123;28;20182;-43
2023/11/15 03:04:31;;;;;;;7.65;2.47;;;9.90;99.90;;;;;;5051727;28;20194;-48
2023/11/15 03:06:57;;;;;;;10.48;2.72;;;9.90;99.90;;;;;;5066180;28;20222;-44
2023/11/15 03:09:23;;;;;;;8.75;3.03;;;9.90;99.90;;;;;;5050089;28;20202;-43
2023/11/15 03:11:49;;;;;;;7.20;2.75;;;9.90;99.90;;;;;;5050926;28;20183;-48
2023/11/15 03:14:15;;;;;;;3.53;2.70;;;9.90;99.90;;;;;;5049467;28;20188;-47
2023/11/15 03:16:43;;;;;;;4.57;2.90;;;10.00;99.90;;;;;;5050831;28;20696;-45
2023/11/15 03:19:09;;;;;;;6.35;3.13;;;9.90;99.90;;;;;;5067372;28;20191;-41
2023/11/15 03:21:35;;;;;;;6.55;2.78;;;9.90;99.90;;;;;;5055599;28;20183;-42
2023/11/15 03:24:02;;;;;;;9.77;3.30;;;9.90;99.90;;;;;;5056167;28;20659;-42
2023/11/15 03:26:27;;;;;;;6.93;3.13;;;10.00;99.90;;;;;;5050355;28;20210;-46
2023/11/15 03:28:53;;;;;;;8.20;3.60;;;9.90;99.90;;;;;;5053054;28;20738;-44
2023/11/15 03:31:20;;;;;;;9.15;4.18;;;9.90;99.90;;;;;;5053771;28;20197;-46
2023/11/15 03:33:47;;;;;;;7.35;4.03;;;9.90;99.90;;;;;;5053532;28;20194;-41
2023/11/15 03:36:15;;;;;;;9.02;3.58;;;9.90;99.90;;;;;;5060952;28;20730;-42
2023/11/15 03:38:41;;;;;;;10.82;4.47;;;9.90;99.90;;;;;;5071641;28;20971;-41
2023/11/15 03:41:08;;;;;;;11.95;3.83;;;9.90;99.90;;;;;;5051060;28;20179;-46
2023/11/15 03:43:34;;;;;;;11.25;4.28;;;9.90;99.90;;;;;;5053023;28;20554;-47
2023/11/15 03:46:00;;;;;;;15.70;5.53;;;9.90;99.90;;;;;;5051035;28;20950;-42
2023/11/15 03:48:27;;;;;;;12.45;5.25;;;9.80;99.90;;;;;;5051845;28;20190;-40
2023/11/15 03:50:53;;;;;;;10.50;5.10;;;9.90;99.90;;;;;;5053490;28;20564;-44
2023/11/15 03:53:19;;;;;;;15.13;5.13;;;9.80;99.90;;;;;;5051701;28;20212;-46
2023/11/15 03:55:44;;;;;;;10.90;5.25;;;9.70;99.90;;;;;;5052375;28;20184;-47
2023/11/15 03:58:10;;;;;;;10.25;5.85;;;9.70;99.90;;;;;;5067572;28;20254;-45
2023/11/15 04:00:37;;;;;;;10.65;5.93;;;9.60;99.90;;;;;;5069305;28;20186;-42
2023/11/15 04:03:03;;;;;;;11.05;5.93;;;9.60;99.90;;;;;;5069693;28;20205;-47
2023/11/15 04:05:29;;;;;;;12.13;5.75;;;9.50;99.90;;;;;;5052441;28;20607;-50
2023/11/15 04:07:56;;;;;;;12.07;6.43;;;9.50;99.90;;;;;;5053245;28;20698;-44
2023/11/15 04:10:23;;;;;;;13.48;7.68;;;9.40;99.90;;;;;;5052220;28;20715;-39
2023/11/15 04:12:54;;;;;;;16.58;7.53;;;9.40;99.90;;;;;;5043878;28;20234;-42
2023/11/15 04:15:22;;;;;;;17.83;8.63;;;9.40;99.90;;;;;;5051318;28;20191;-44
2023/11/15 04:17:48;;;;;;;13.75;8.00;;;9.40;99.90;;;;;;5052110;28;20714;-45
2023/11/15 04:20:14;;;;;;;16.98;8.30;;;9.40;99.90;;;;;;5053853;28;20197;-44
2023/11/15 04:22:40;;;;;;;15.65;8.02;;;9.30;99.90;;;;;;5068603;28;20187;-47
2023/11/15 04:25:07;;;;;;;14.85;7.30;;;9.30;99.90;;;;;;5044564;28;20188;-42
2023/11/15 04:27:33;;;;;;;17.58;7.70;;;9.30;99.90;;;;;;5051679;28;20245;-46
2023/11/15 04:29:59;;;;;;;18.17;8.63;;;9.30;99.90;;;;;;5049919;28;20614;-46
2023/11/15 04:32:24;;;;;;;18.20;7.50;;;9.30;99.90;;;;;;5054405;28;20186;-46
2023/11/15 04:34:51;;;;;;;15.32;7.43;;;9.30;99.90;;;;;;5053580;28;20183;-43
2023/11/15 04:37:17;;;;;;;20.75;7.93;;;9.30;99.90;;;;;;5055235;28;20716;-47
2023/11/15 04:39:43;;;;;;;16.10;7.95;;;9.30;99.90;;;;;;5068690;28;20197;-44
2023/11/15 04:42:10;;;;;;;11.70;6.78;;;9.20;99.90;;;;;;5051967;28;20642;-45
2023/11/15 04:44:36;;;;;;;15.93;7.60;;;9.20;99.90;;;;;;5052383;28;20673;-44
2023/11/15 04:47:03;;;;;;;14.48;7.45;;;9.30;99.90;;;;;;5053665;28;20309;-45
2023/11/15 04:49:29;;;;;;;17.23;7.18;;;9.30;99.90;;;;;;5053692;28;20634;-43
2023/11/15 04:51:56;;;;;;;15.52;8.15;;;9.30;99.90;;;;;;5052639;28;20186;-48
2023/11/15 04:54:21;;;;;;;14.07;7.28;;;9.20;99.90;;;;;;5053957;28;20184;-41
2023/11/15 04:56:47;;;;;;;15.55;7.28;;;9.20;99.90;;;;;;5048788;28;20191;-44
2023/11/15 04:59:13;;;;;;;19.48;7.10;;;9.20;99.90;;;;;;5051804;28;20194;-47
2023/11/15 05:01:41;;;;;;;8.82;6.50;;;9.10;99.90;;;;;;5052659;28;20333;-49
2023/11/15 05:04:07;;;;;;;9.07;6.18;;;9.10;99.90;;;;;;5055830;28;20648;-48
2023/11/15 05:06:34;;;;;;;13.65;6.18;;;9.10;99.90;;;;;;5054299;28;20260;-43
2023/11/15 05:09:00;;;;;;;13.05;5.68;;;9.10;99.90;;;;;;5055787;28;20698;-43
2023/11/15 05:11:25;;;;;;;9.23;6.22;;;9.10;99.90;;;;;;5049396;28;20214;-42
2023/11/15 05:13:51;;;;;;;12.70;6.47;;;9.10;99.90;;;;;;5054257;28;20368;-41
2023/11/15 05:16:18;;;;;;;13.77;6.55;;;9.10;99.90;;;;;;5053411;28;20201;-45
2023/11/15 05:18:44;;;;;;;13.82;6.53;;;9.10;99.90;;;;;;5051327;28;20265;-44
2023/11/15 05:21:10;;;;;;;13.02;6.82;;;9.10;99.90;;;;;;5053661;28;20528;-43
2023/11/15 05:23:36;;;;;;;10.27;7.00;;;9.10;99.90;;;;;;5050604;28;20195;-45
2023/11/15 05:26:02;;;;;;;11.82;7.40;;;9.20;99.90;;;;;;5052434;28;20664;-45
2023/11/15 05:28:28;;;;;;;14.20;6.90;;;9.10;99.90;;;;;;5069990;28;20205;-44
2023/11/15 05:30:54;;;;;;;13.38;6.82;;;9.10;99.90;;;;;;5052706;28;20187;-45
2023/11/15 05:33:20;;;;;;;9.75;6.53;;;9.10;99.90;;;;;;5054119;28;20190;-43
2023/11/15 05:35:47;;;;;;;13.43;6.78;;;9.20;99.90;;;;;;5052476;28;20213;-41
2023/11/15 05:38:13;;;;;;;14.65;6.95;;;9.20;99.90;;;;;;5056089;28;20218;-43
2023/11/15 05:40:39;;;;;;;10.15;6.60;;;9.20;99.90;;;;;;5049627;28;20249;-44
2023/11/15 05:43:05;;;;;;;13.77;8.15;;;9.20;99.90;;;;;;5049092;28;20190;-41
2023/11/15 05:45:31;;;;;;;11.88;7.07;;;9.20;99.90;;;;;;5047136;28;20205;-40
2023/11/15 05:47:58;;;;;;;15.23;6.20;;;9.30;99.90;;;;;;5051852;28;20230;-46
2023/11/15 05:50:24;;;;;;;14.50;7.00;;;9.30;99.90;;;;;;5049913;28;20206;-45
2023/11/15 05:52:52;;;;;;;8.75;5.65;;;9.30;99.90;;;;;;5049123;28;20187;-39
2023/11/15 05:55:18;;;;;;;11.90;5.72;;;9.30;99.90;;;;;;5050442;28;20186;-41
2023/11/15 05:57:46;;;;;;;11.13;6.53;;;9.40;99.90;;;;;;5069176;28;20548;-46
2023/11/15 06:00:18;;;;;;;9.38;5.55;;;9.40;99.90;;;;;;5049507;28;20305;-45
2023/11/15 06:02:48;;;;;;;15.98;6.10;;;9.40;99.90;;;;;;5049678;28;20241;-43
2023/11/15 06:05:14;;;;;;;11.93;5.47;;;9.40;99.90;;;;;;5051712;28;20187;-43
2023/11/15 06:07:41;;;;;;;9.73;5.50;;;9.50;99.90;;;;;;5049512;28;20217;-45
2023/11/15 06:10:08;;;;;;;10.48;5.40;;;9.50;99.90;;;;;;5052295;28;20655;-45
2023/11/15 06:12:35;;;;;;;7.65;5.15;;;9.50;99.90;;;;;;5051536;28;20198;-42
2023/11/15 06:15:03;;;;;;;9.88;5.50;;;9.50;99.90;;;;;;5049593;28;20268;-43
2023/11/15 06:17:30;;;;;;;6.68;4.80;;;9.50;99.90;;;;;;5051730;28;20277;-47
2023/11/15 06:19:57;;;;;;;11.82;5.38;;;9.50;99.90;;;;;;5050104;28;20670;-43
2023/11/15 06:22:23;;;;;;;6.35;4.63;;;9.50;99.90;;;;;;5051968;28;20561;-43
2023/11/15 06:24:50;;;;;;;7.43;5.20;;;9.60;99.90;;;;;;5047776;28;20562;-41
2023/11/15 06:27:17;;;;;;;12.00;5.32;;;9.60;99.90;;;;;;5050430;28;20211;-47
2023/11/15 06:29:54;;;;;;;7.35;5.50;;;9.60;99.90;;;;;;5049375;28;20187;-44
2023/11/15 06:32:21;;;;;;;11.10;4.72;;;9.60;99.90;;;;;;5051658;28;20192;-44
2023/11/15 06:34:46;;;;;;;8.93;5.32;;;9.60;99.90;;;;;;5054249;28;20564;-48
2023/11/15 06:37:13;;;;;;;8.07;4.85;;;9.60;99.90;;;;;;5050150;28;20197;-43
2023/11/15 06:39:43;;;;;;;10.02;5.07;;;9.60;99.90;;;;;;5051743;28;20276;-46
2023/11/15 06:42:12;;;;;;;7.88;5.07;;;9.60;99.90;;;;;;5048661;28;20195;-43
2023/11/15 06:44:38;;;;;;;6.45;5.13;;;9.70;99.90;;;;;;5051484;28;20217;-46
2023/11/15 06:47:06;;;;;;;7.88;5.38;;;9.60;99.90;;;;;;5050491;28;20297;-46
2023/11/15 06:49:32;;;;;;;9.18;5.72;;;9.60;99.90;;;;;;5047538;28;20187;-48
2023/11/15 06:51:58;;;;;;;10.30;5.70;;;9.70;99.90;;;;;;5050346;28;20704;-41
2023/11/15 06:54:24;;;;;;;10.65;5.68;;;9.60;99.90;;;;;;5051395;28;20306;-43
2023/11/15 06:56:49;;;;;;;10.90;5.55;;;9.70;99.90;;;;;;5046574;28;20183;-46
2023/11/15 06:59:17;;;;;;;10.85;5.68;;;9.70;99.90;;;;;;5051010;28;20214;-46
2023/11/15 07:01:48;;;;;;;8.93;5.20;;;9.70;99.90;;;;;;5051521;28;20633;-41
2023/11/15 07:04:14;;;;;;;8.98;5.85;;;9.70;99.90;;;;;;5051666;28;20227;-46
2023/11/15 07:06:45;;;;;;;11.27;6.03;;;9.70;99.90;;;;;;5050954;28;20207;-42
2023/11/15 07:09:12;;;;;;;9.15;5.60;;;9.80;99.90;;;;;;5052881;28;20194;-43
2023/11/15 07:11:46;;;;;;;9.10;5.78;;;9.80;99.90;;;;;;5049507;28;20190;-45
2023/11/15 07:14:14;;;;;;;11.02;5.55;;;9.80;99.90;;;;;;5047851;28;20197;-45
2023/11/15 07:16:58;;;;;;;16.10;7.40;;;9.80;99.90;;;;;;5041447;28;20203;-45
2023/11/15 07:19:24;;;;;;;12.68;6.00;;;9.80;99.90;;;;;;5049907;28;20193;-46
2023/11/15 07:21:52;;;;;;;11.80;5.78;;;9.90;99.90;;;;;;5045520;28;20198;-45
2023/11/15 07:24:19;;;;;;;10.57;5.18;;;9.90;99.90;;;;;;5053889;28;20194;-43
2023/11/15 07:26:45;;;;;;;11.95;5.70;;;9.90;99.90;;;;;;5050662;28;20207;-45
2023/11/15 07:29:14;;;;;;;9.00;5.15;;;9.90;99.90;;;;;;5050074;28;20183;-46
2023/11/15 07:31:40;;;;;;;9.43;5.18;;;10.00;99.90;;;;;;5049670;28;20212;-45
2023/11/15 07:34:08;;;;;;;8.82;5.93;;;10.00;99.90;;;;;;5047881;28;21076;-39
2023/11/15 07:36:34;;;;;;;10.25;5.90;;;10.00;99.90;;;;;;5053045;28;20896;-43
2023/11/15 07:39:01;;;;;;;8.95;5.57;;;10.00;99.90;;;;;;5045627;28;20183;-46
2023/11/15 07:41:27;;;;;;;11.77;5.22;;;10.00;99.90;;;;;;5050791;28;20194;-45
2023/11/15 07:43:55;;;;;;;9.93;5.30;;;10.00;99.90;;;;;;5049193;28;20305;-45
2023/11/15 07:46:26;;;;;;;8.18;5.50;;;10.00;99.90;;;;;;5050226;28;20279;-45
2023/11/15 07:48:51;;;;;;;9.18;5.47;;;10.00;99.90;;;;;;5049572;28;20274;-42
2023/11/15 07:51:18;;;;;;;13.55;6.10;;;10.00;99.90;;;;;;5048130;28;20784;-46
2023/11/15 07:53:45;;;;;;;7.55;5.25;;;10.10;99.90;;;;;;5052520;28;20191;-46
2023/11/15 07:56:11;;;;;;;8.32;5.82;;;10.00;99.90;;;;;;5049307;28;20609;-48
2023/11/15 07:58:37;;;;;;;7.97;5.90;;;10.00;99.90;;;;;;5049908;28;20190;-45
2023/11/15 08:01:04;;;;;;;13.52;5.60;;;10.00;99.90;;;;;;5048160;28;20183;-43
2023/11/15 08:03:30;;;;;;;8.85;6.00;;;10.10;99.90;;;;;;5051184;28;20203;-45
2023/11/15 08:05:56;;;;;;;9.10;5.47;;;10.10;99.90;;;;;;5050429;28;20175;-41
2023/11/15 08:08:22;;;;;;;9.15;6.00;;;10.10;99.90;;;;;;5052534;28;20225;-46
2023/11/15 08:10:50;;;;;;;10.73;5.80;;;10.10;99.90;;;;;;5055084;28;20652;-47
2023/11/15 08:13:22;;;;;;;7.53;5.65;;;10.10;99.90;;;;;;5054537;28;20191;-45
2023/11/15 08:15:48;;;;;;;9.63;5.55;;;10.20;99.90;;;;;;5056500;28;20648;-49
2023/11/15 08:18:14;;;;;;;10.05;5.50;;;10.20;99.90;;;;;;5054231;28;20214;-49
2023/11/15 08:20:43;;;;;;;12.27;5.63;;;10.30;99.90;;;;;;5052506;28;20256;-41
2023/11/15 08:23:12;;;;;;;11.07;6.70;;;10.30;99.90;;;;;;5047656;28;20195;-47
2023/11/15 08:25:45;;;;;;;8.70;5.15;;;10.40;99.90;;;;;;5050316;28;20195;-45
2023/11/15 08:28:10;;;;;;;7.45;4.90;;;10.40;99.90;;;;;;5051411;28;20209;-42
2023/11/15 08:30:36;;;;;;;11.23;4.97;;;10.40;99.90;;;;;;5048120;28;20260;-44
2023/11/15 08:33:05;;;;;;;10.13;5.43;;;10.30;99.90;;;;;;5052852;28;20269;-42
2023/11/15 08:35:32;;;;;;;9.45;4.90;;;10.30;99.90;;;;;;5049496;28;20196;-45
2023/11/15 08:37:58;;;;;;;11.00;5.38;;;10.30;99.90;;;;;;5070084;28;20185;-46
2023/11/15 08:40:25;;;;;;;11.65;5.03;;;10.30;99.90;;;;;;5052073;28;20552;-44
2023/11/15 08:42:55;;;;;;;10.15;4.97;;;10.30;99.90;;;;;;5051362;28;20219;-47
2023/11/15 08:45:21;;;;;;;9.63;5.10;;;10.30;99.90;;;;;;5064423;28;20292;-46
2023/11/15 08:47:46;;;;;;;7.72;4.90;;;10.40;99.90;;;;;;5052811;28;20596;-43
2023/11/15 08:50:14;;;;;;;13.52;4.75;;;10.40;99.90;;;;;;5051794;28;20195;-42
2023/11/15 08:52:40;;;;;;;12.82;4.28;;;10.40;99.90;;;;;;5052394;28;20270;-44
2023/11/15 08:55:11;;;;;;;12.20;4.55;;;10.50;99.90;;;;;;5047842;28;20191;-44
2023/11/15 08:57:38;;;;;;;10.38;4.20;;;10.40;99.90;;;;;;5051642;28;21215;-47
2023/11/15 09:00:07;;;;;;;7.88;4.20;;;10.50;99.90;;;;;;5046752;28;20282;-46
2023/11/15 09:02:33;;;;;;;9.05;4.05;;;10.60;99.90;;;;;;5047605;28;20270;-44
2023/11/15 09:05:08;;;;;;;8.80;4.25;;;10.60;99.90;;;;;;5050660;28;20769;-44
2023/11/15 09:07:37;;;;;;;9.60;4.07;;;10.60;99.90;;;;;;5051745;28;20222;-47
2023/11/15 09:10:07;;;;;;;10.05;4.03;;;10.60;99.90;;;;;;5048758;28;20198;-40
2023/11/15 09:12:36;;;;;;;8.68;4.45;;;10.60;99.90;;;;;;5048210;28;20647;-46
2023/11/15 09:15:11;;;;;;;12.02;4.45;;;10.70;99.90;;;;;;5050507;28;20194;-44
2023/11/15 09:17:46;;;;;;;8.30;4.47;;;10.70;99.90;;;;;;5049440;28;20531;-44
2023/11/15 09:20:29;;;;;;;11.48;3.97;;;10.70;99.90;;;;;;5049244;28;20197;-42
2023/11/15 09:22:57;;;;;;;9.23;5.07;;;10.80;99.90;;;;;;5050551;28;20944;-43
2023/11/15 09:25:26;;;;;;;10.23;4.25;;;10.80;99.90;;;;;;5052064;28;20221;-40
2023/11/15 09:27:59;;;;;;;11.05;4.35;;;10.90;99.90;;;;;;5052111;28;20214;-40
2023/11/15 09:30:26;;;;;;;10.82;4.53;;;10.90;99.90;;;;;;5048895;28;20674;-42
2023/11/15 09:32:52;;;;;;;7.18;3.88;;;11.00;99.90;;;;;;5049151;28;20605;-44
2023/11/15 09:35:23;;;;;;;9.25;4.45;;;11.00;99.90;;;;;;5049055;28;20222;-45
2023/11/15 09:37:50;;;;;;;12.80;4.68;;;11.20;99.90;;;;;;5052069;28;20198;-42
2023/11/15 09:40:16;;;;;;;6.25;3.47;;;11.20;99.90;;;;;;5049692;28;20309;-44
2023/11/15 09:42:47;;;;;;;7.65;3.63;;;11.30;99.90;;;;;;5048553;28;20202;-45
2023/11/15 09:45:19;;;;;;;7.47;3.42;;;11.30;99.90;;;;;;5048243;28;20196;-45
2023/11/15 09:47:47;;;;;;;5.82;2.90;;;11.40;99.90;;;;;;5048034;28;20238;-43
2023/11/15 09:50:23;;;;;;;8.85;3.33;;;11.50;99.90;;;;;;5050147;28;20197;-44
2023/11/15 09:52:50;;;;;;;7.22;3.40;;;11.50;99.90;;;;;;5050936;28;20190;-45
2023/11/15 09:55:18;;;;;;;9.48;3.30;;;11.50;99.90;;;;;;5047896;28;20294;-45
2023/11/15 09:57:44;;;;;;;10.57;3.35;;;11.60;99.90;;;;;;5048686;28;20191;-44
2023/11/15 10:00:11;;;;;;;8.65;2.75;;;11.60;99.90;;;;;;5047440;28;20332;-41
2023/11/15 10:02:39;;;;;;;10.20;3.03;;;11.60;99.90;;;;;;5051521;28;20205;-44
2023/11/15 10:05:23;;;;;;;7.63;2.70;;;11.60;99.90;;;;;;5053658;28;20560;-43
2023/11/15 10:07:52;;;;;;;9.18;2.80;;;11.70;99.90;;;;;;5049398;28;20245;-45
2023/11/15 10:10:24;;;;;;;7.72;2.92;;;11.60;99.90;;;;;;5048395;28;20229;-42
2023/11/15 10:12:53;;;;;;;6.50;2.65;;;11.60;99.90;;;;;;5049234;28;20186;-48
2023/11/15 10:15:36;;;;;;;5.82;3.08;;;11.70;99.90;;;;;;5052227;28;20221;-42
2023/11/15 10:18:03;;;;;;;6.40;3.03;;;11.70;99.90;;;;;;5046629;28;20243;-43
2023/11/15 10:20:30;;;;;;;4.93;2.63;;;11.80;99.90;;;;;;5050743;28;20557;-47
2023/11/15 10:22:57;;;;;;;9.60;2.60;;;11.80;99.90;;;;;;5052361;28;20253;-40
2023/11/15 10:25:26;;;;;;;3.20;2.15;;;11.80;99.90;;;;;;5047103;28;20197;-43
2023/11/15 10:28:03;;;;;;;5.30;2.72;;;11.80;99.90;;;;;;5050866;28;20808;-48
2023/11/15 10:30:29;;;;;;;5.50;2.67;;;11.80;99.90;;;;;;5048548;28;20222;-47
2023/11/15 10:33:13;;;;;;;4.88;2.50;;;11.80;99.90;;;;;;5058754;28;20279;-45
2023/11/15 10:35:40;;;;;;;4.25;2.00;;;11.90;99.90;;;;;;5049915;28;20208;-42
2023/11/15 10:38:14;;;;;;;4.15;2.35;;;11.90;99.90;;;;;;5053249;28;20187;-46
2023/11/15 10:40:46;;;;;;;6.20;2.40;;;12.00;99.90;;;;;;5067712;28;20438;-45
2023/11/15 10:43:16;;;;;;;6.32;2.67;;;12.00;99.90;;;;;;5052956;28;20244;-48
2023/11/15 10:45:43;;;;;;;7.70;2.47;;;12.10;99.90;;;;;;5046954;28;20595;-44
2023/11/15 10:48:17;;;;;;;8.25;2.40;;;12.10;99.90;;;;;;5050970;28;20259;-44
2023/11/15 10:50:45;;;;;;;4.10;2.10;;;12.20;99.90;;;;;;5054323;28;20684;-42
2023/11/15 10:53:12;;;;;;;4.53;2.40;;;12.20;99.90;;;;;;5051897;28;20325;-43
2023/11/15 10:55:39;;;;;;;5.35;2.70;;;12.20;99.90;;;;;;5048304;28;20249;-47
2023/11/15 10:58:09;;;;;;;7.40;2.90;;;12.20;99.90;;;;;;5070204;28;20197;-48
2023/11/15 11:00:35;;;;;;;3.00;2.00;;;12.10;99.90;;;;;;5047769;28;20207;-42
2023/11/15 11:03:01;;;;;;;5.03;2.63;;;12.10;99.90;;;;;;5052737;28;20200;-46
2023/11/15 11:06:15;;;;;;;5.22;2.50;;;12.00;99.90;;;;;;5050708;28;20199;-46
2023/11/15 11:08:51;;;;;;;5.03;1.80;;;11.90;99.90;;;;;;5045387;28;20514;-47
2023/11/15 11:11:52;;;;;;;3.30;1.80;;;11.80;99.90;;;;;;5048181;28;20191;-45
2023/11/15 11:14:30;;;;;;;2.63;1.70;;;11.70;99.90;;;;;;5050146;28;20251;-46
2023/11/15 11:16:57;;;;;;;2.50;1.52;;;11.60;99.90;;;;;;5047535;28;20616;-44
2023/11/15 11:19:25;;;;;;;3.90;1.30;;;11.60;99.90;;;;;;5047056;28;20190;-41
2023/11/15 11:22:02;;;;;;;3.08;1.65;;;11.50;99.90;;;;;;5052415;28;20195;-47
2023/11/15 11:24:36;;;;;;;3.90;1.70;;;11.50;99.90;;;;;;5049752;28;20191;-44
2023/11/15 11:27:24;;;;;;;3.00;1.80;;;11.40;99.90;;;;;;5049504;28;20641;-46
2023/11/15 11:30:02;;;;;;;6.63;2.20;;;11.40;99.90;;;;;;5051454;28;20191;-48
2023/11/15 11:32:32;;;;;;;6.22;3.08;;;11.30;99.90;;;;;;5045661;28;20222;-43
2023/11/15 11:35:01;;;;;;;6.10;2.03;;;11.20;99.90;;;;;;5049732;28;20186;-44
2023/11/15 11:38:00;;;;;;;5.13;1.77;;;11.20;99.90;;;;;;5048458;28;20195;-46
2023/11/15 11:40:32;;;;;;;6.10;1.95;;;11.20;99.90;;;;;;5047281;28;20199;-47
2023/11/15 11:43:13;;;;;;;4.75;1.77;;;11.20;99.90;;;;;;5055542;28;20190;-43
2023/11/15 11:45:40;;;;;;;6.97;2.00;;;11.20;99.90;;;;;;5055616;28;20266;-42
2023/11/15 11:48:18;;;;;;;5.43;1.98;;;11.20;99.90;;;;;;5055413;28;20584;-44
2023/11/15 11:51:05;;;;;;;7.00;2.40;;;11.20;99.90;;;;;;5067302;28;20196;-45
2023/11/15 11:53:38;;;;;;;6.68;1.80;;;11.20;99.90;;;;;;5045907;28;20191;-42
2023/11/15 11:56:09;;;;;;;5.43;1.70;;;11.20;99.90;;;;;;5055741;28;20269;-49
2023/11/15 11:58:36;;;;;;;4.78;1.55;;;11.20;99.90;;;;;;5052416;28;20179;-41
2023/11/15 12:01:07;;;;;;;6.97;2.05;;;11.20;99.90;;;;;;5054290;28;20190;-47
2023/11/15 12:03:35;;;;;;;4.70;1.67;;;11.20;99.90;;;;;;5049268;28;20187;-44
2023/11/15 12:06:07;;;;;;;8.30;2.28;;;11.20;99.90;;;;;;5053353;28;20274;-41
2023/11/15 12:08:35;;;;;;;7.43;2.20;;;11.20;99.90;;;;;;5053816;28;20210;-45
2023/11/15 12:11:01;;;;;;;6.45;2.17;;;11.20;99.90;;;;;;5048462;28;20198;-41
2023/11/15 12:13:41;;;;;;;5.93;2.20;;;11.20;99.90;;;;;;5052973;28;20292;-47
2023/11/15 12:16:14;;;;;;;13.02;2.42;;;11.20;99.90;;;;;;5028061;28;20266;-44
2023/11/15 12:18:40;;;;;;;11.20;2.67;;;11.20;99.90;;;;;;5052162;28;20611;-44
2023/11/15 12:21:07;;;;;;;11.30;2.65;;;11.20;99.90;;;;;;5051096;28;20202;-47
2023/11/15 12:23:35;;;;;;;10.27;2.33;;;11.20;99.90;;;;;;5051730;28;20253;-48
2023/11/15 12:26:04;;;;;;;9.00;2.28;;;11.20;99.90;;;;;;5053593;28;20267;-48
2023/11/15 12:28:32;;;;;;;8.68;2.63;;;11.20;99.90;;;;;;5052285;28;20236;-43
2023/11/15 12:31:03;;;;;;;8.18;2.22;;;11.10;99.90;;;;;;5054637;28;20188;-42
2023/11/15 12:33:30;;;;;;;7.50;3.10;;;11.10;99.90;;;;;;5052286;28;20254;-43
2023/11/15 12:35:57;;;;;;;11.80;3.38;;;11.10;99.90;;;;;;5051154;28;20594;-47
2023/11/15 12:38:23;;;;;;;7.55;1.85;;;11.20;99.90;;;;;;5050646;28;20187;-46
2023/11/15 12:40:49;;;;;;;7.35;2.28;;;11.10;99.90;;;;;;5049451;28;20202;-49
2023/11/15 12:43:21;;;;;;;13.30;2.30;;;11.20;99.90;;;;;;5051466;28;20281;-47
2023/11/15 12:45:53;;;;;;;9.10;2.50;;;11.20;99.90;;;;;;5051039;28;20191;-47
2023/11/15 12:48:22;;;;;;;14.82;2.80;;;11.20;99.90;;;;;;5065842;28;20219;-43
2023/11/15 12:50:48;;;;;;;10.10;2.97;;;11.20;99.90;;;;;;5051663;28;20270;-45
2023/11/15 12:53:17;;;;;;;9.18;3.42;;;11.20;99.90;;;;;;5049802;28;20198;-45